createdAt,value
2023-05-05T00:01:56.728Z,21.03
2023-05-05T00:04:24.340Z,20.97
2023-05-05T00:06:51.758Z,21.07
2023-05-05T00:09:19.361Z,20.40
2023-05-05T00:11:46.930Z,20.53
2023-05-05T00:14:14.520Z,20.80
2023-05-05T00:16:42.470Z,20.87
2023-05-05T00:19:09.999Z,20.50
2023-05-05T00:21:37.375Z,20.53
2023-05-05T00:24:05.413Z,20.57
2023-05-05T00:26:32.877Z,20.17
2023-05-05T00:29:00.611Z,21.80
2023-05-05T00:31:28.290Z,20.67
2023-05-05T00:33:56.390Z,20.00
2023-05-05T00:36:24.028Z,20.50
2023-05-05T00:38:51.505Z,20.53
2023-05-05T00:41:18.999Z,19.83
2023-05-05T00:43:46.414Z,20.47
2023-05-05T00:46:28.971Z,25.13
2023-05-05T00:48:57.232Z,23.13
2023-05-05T00:51:25.276Z,22.37
2023-05-05T00:53:53.048Z,21.33
2023-05-05T00:56:27.389Z,21.63
2023-05-05T00:58:55.274Z,21.23
2023-05-05T01:01:23.146Z,21.57
2023-05-05T01:03:50.751Z,21.30
2023-05-05T01:06:46.701Z,20.23
2023-05-05T01:09:38.669Z,21.83
2023-05-05T01:12:23.880Z,18.83
2023-05-05T01:15:07.718Z,19.77
2023-05-05T01:17:46.894Z,19.83
2023-05-05T01:20:36.279Z,20.37
2023-05-05T01:23:08.510Z,21.03
2023-05-05T01:26:00.664Z,21.07
2023-05-05T01:29:08.080Z,21.60
2023-05-05T01:32:14.972Z,23.80
2023-05-05T01:35:04.673Z,24.50
2023-05-05T01:37:57.684Z,23.53
2023-05-05T01:40:32.147Z,22.50
2023-05-05T01:43:02.607Z,20.47
2023-05-05T01:45:36.146Z,19.57
2023-05-05T01:48:06.289Z,20.00
2023-05-05T01:50:35.389Z,19.90
2023-05-05T01:53:05.693Z,19.83
2023-05-05T01:55:34.241Z,19.57
2023-05-05T01:58:04.480Z,19.60
2023-05-05T02:00:33.842Z,19.30
2023-05-05T02:03:06.605Z,19.80
2023-05-05T02:05:36.793Z,18.63
2023-05-05T02:08:06.792Z,19.83
2023-05-05T02:10:35.464Z,18.97
2023-05-05T02:13:06.837Z,17.57
2023-05-05T02:15:38.663Z,18.50
2023-05-05T02:18:07.859Z,18.30
2023-05-05T02:20:38.728Z,18.73
2023-05-05T02:23:09.446Z,18.93
2023-05-05T02:25:42.755Z,19.00
2023-05-05T02:28:21.096Z,18.27
2023-05-05T02:30:58.584Z,18.13
2023-05-05T02:33:34.105Z,18.00
2023-05-05T02:36:22.807Z,18.47
2023-05-05T02:39:02.377Z,17.47
2023-05-05T02:41:36.943Z,16.90
2023-05-05T02:44:10.924Z,16.57
2023-05-05T02:46:39.658Z,16.57
2023-05-05T02:49:07.308Z,18.40
2023-05-05T02:51:35.228Z,20.33
2023-05-05T02:54:07.830Z,19.93
2023-05-05T02:56:44.696Z,20.30
2023-05-05T02:59:41.821Z,22.87
2023-05-05T03:02:38.964Z,27.57
2023-05-05T03:05:13.573Z,23.63
2023-05-05T03:08:11.280Z,21.07
2023-05-05T03:11:08.655Z,21.00
2023-05-05T03:13:43.271Z,19.13
2023-05-05T03:16:18.601Z,18.23
2023-05-05T03:18:49.251Z,22.73
2023-05-05T03:21:18.094Z,20.83
2023-05-05T03:23:46.047Z,20.50
2023-05-05T03:26:19.810Z,20.27
2023-05-05T03:28:47.760Z,34.67
2023-05-05T03:31:37.990Z,21.00
2023-05-05T03:34:06.369Z,17.63
2023-05-05T03:36:42.206Z,17.57
2023-05-05T03:39:12.588Z,17.77
2023-05-05T03:41:40.359Z,17.90
2023-05-05T03:44:09.536Z,20.50
2023-05-05T03:46:38.432Z,18.43
2023-05-05T03:49:09.838Z,19.13
2023-05-05T03:51:38.841Z,18.50
2023-05-05T03:54:09.099Z,19.27
2023-05-05T03:56:37.423Z,18.57
2023-05-05T03:59:04.992Z,18.63
2023-05-05T04:01:32.698Z,20.90
2023-05-05T04:04:02.243Z,21.03
2023-05-05T04:06:32.364Z,19.10
2023-05-05T04:09:00.212Z,19.10
2023-05-05T04:11:28.609Z,17.87
2023-05-05T04:13:59.182Z,18.40
2023-05-05T04:16:29.647Z,18.77
2023-05-05T04:18:58.532Z,17.93
2023-05-05T04:21:26.150Z,19.50
2023-05-05T04:23:53.789Z,17.73
2023-05-05T04:26:22.682Z,17.57
2023-05-05T04:28:50.903Z,17.30
2023-05-05T04:31:19.907Z,17.47
2023-05-05T04:33:48.223Z,17.40
2023-05-05T04:36:15.909Z,18.00
2023-05-05T04:38:43.443Z,17.10
2023-05-05T04:41:11.869Z,18.60
2023-05-05T04:43:41.476Z,19.00
2023-05-05T04:46:09.064Z,18.23
2023-05-05T04:48:38.576Z,17.43
2023-05-05T04:51:07.447Z,18.43
2023-05-05T04:53:36.171Z,18.43
2023-05-05T04:56:04.424Z,16.90
2023-05-05T04:58:31.949Z,14.07
2023-05-05T05:00:59.480Z,8.77
2023-05-05T05:03:27.238Z,7.03
2023-05-05T05:05:54.862Z,6.50
2023-05-05T05:08:22.655Z,7.40
2023-05-05T05:10:50.189Z,6.10
2023-05-05T05:13:17.794Z,5.30
2023-05-05T05:15:46.313Z,6.20
2023-05-05T05:18:13.995Z,6.70
2023-05-05T05:20:41.723Z,5.33
2023-05-05T05:23:09.673Z,5.40
2023-05-05T05:25:46.669Z,5.10
2023-05-05T05:28:16.619Z,6.67
2023-05-05T05:30:49.179Z,4.90
2023-05-05T05:33:20.164Z,4.80
2023-05-05T05:35:49.762Z,5.67
2023-05-05T05:38:19.804Z,5.40
2023-05-05T05:40:49.163Z,6.33
2023-05-05T05:43:20.054Z,5.67
2023-05-05T05:45:47.641Z,5.80
2023-05-05T05:48:15.960Z,6.57
2023-05-05T05:50:43.715Z,5.57
2023-05-05T05:53:11.301Z,5.23
2023-05-05T05:55:38.878Z,5.07
2023-05-05T05:58:06.559Z,5.77
2023-05-05T06:00:34.076Z,5.53
2023-05-05T06:03:07.499Z,5.83
2023-05-05T06:05:37.937Z,6.03
2023-05-05T06:08:05.898Z,4.50
2023-05-05T06:10:37.373Z,4.53
2023-05-05T06:13:10.657Z,4.07
2023-05-05T06:15:42.364Z,4.20
2023-05-05T06:18:12.192Z,4.80
2023-05-05T06:20:40.014Z,4.40
2023-05-05T06:23:08.028Z,4.87
2023-05-05T06:25:40.180Z,4.13
2023-05-05T06:28:07.732Z,4.73
2023-05-05T06:30:36.350Z,4.23
2023-05-05T06:33:03.961Z,5.40
2023-05-05T06:35:32.036Z,4.43
2023-05-05T06:37:59.519Z,4.43
2023-05-05T06:40:27.026Z,6.67
2023-05-05T06:42:54.634Z,4.57
2023-05-05T06:45:27.833Z,4.67
2023-05-05T06:47:55.711Z,5.20
2023-05-05T06:50:23.221Z,5.27
2023-05-05T06:52:50.779Z,5.83
2023-05-05T06:55:18.243Z,5.83
2023-05-05T06:57:45.728Z,4.90
2023-05-05T07:00:15.055Z,6.00
2023-05-05T07:02:42.740Z,5.63
2023-05-05T07:05:11.173Z,6.13
2023-05-05T07:07:39.032Z,5.60
2023-05-05T07:10:07.673Z,5.37
2023-05-05T07:12:36.014Z,5.90
2023-05-05T07:15:15.480Z,5.10
2023-05-05T07:17:51.295Z,5.70
2023-05-05T07:20:19.068Z,6.07
2023-05-05T07:22:46.616Z,5.40
2023-05-05T07:25:14.119Z,5.60
2023-05-05T07:27:41.784Z,5.60
2023-05-05T07:30:13.248Z,5.70
2023-05-05T07:32:43.070Z,6.20
2023-05-05T07:35:10.882Z,6.53
2023-05-05T07:37:38.432Z,5.70
2023-05-05T07:40:07.164Z,6.00
2023-05-05T07:42:34.792Z,6.93
2023-05-05T07:45:02.412Z,5.57
2023-05-05T07:47:30.264Z,5.50
2023-05-05T07:49:58.139Z,5.30
2023-05-05T07:52:43.687Z,5.93
2023-05-05T07:55:12.616Z,5.53
2023-05-05T07:57:40.159Z,4.60
2023-05-05T08:00:09.651Z,4.37
2023-05-05T08:02:42.307Z,4.30
2023-05-05T08:05:10.147Z,5.20
2023-05-05T08:07:41.336Z,4.80
2023-05-05T08:10:12.024Z,4.67
2023-05-05T08:12:41.024Z,4.10
2023-05-05T08:15:09.370Z,3.60
2023-05-05T08:17:53.569Z,3.80
2023-05-05T08:20:22.026Z,3.37
2023-05-05T08:22:50.525Z,2.97
2023-05-05T08:25:18.186Z,3.80
2023-05-05T08:27:46.017Z,4.43
2023-05-05T08:30:14.318Z,3.90
2023-05-05T08:32:41.966Z,4.90
2023-05-05T08:35:10.269Z,4.50
2023-05-05T08:37:37.993Z,3.77
2023-05-05T08:40:06.782Z,3.80
2023-05-05T08:42:38.758Z,4.80
2023-05-05T08:45:09.728Z,4.10
2023-05-05T08:47:39.275Z,4.57
2023-05-05T08:50:09.322Z,3.77
2023-05-05T08:52:46.055Z,3.83
2023-05-05T08:55:29.129Z,3.50
2023-05-05T08:57:58.523Z,3.70
2023-05-05T09:00:28.874Z,4.00
2023-05-05T09:03:00.875Z,3.70
2023-05-05T09:05:28.766Z,4.33
2023-05-05T09:07:59.403Z,3.70
2023-05-05T09:10:30.030Z,3.47
2023-05-05T09:12:58.102Z,3.60
2023-05-05T09:15:28.334Z,3.40
2023-05-05T09:17:58.487Z,3.87
2023-05-05T09:20:55.449Z,3.53
2023-05-05T09:23:24.054Z,3.67
2023-05-05T09:26:08.179Z,3.63
2023-05-05T09:28:35.817Z,3.90
2023-05-05T09:31:21.725Z,4.00
2023-05-05T09:33:49.718Z,3.53
2023-05-05T09:36:17.341Z,3.13
2023-05-05T09:39:07.428Z,4.05
2023-05-05T09:41:42.409Z,4.57
2023-05-05T09:44:11.103Z,3.13
2023-05-05T09:46:39.321Z,3.70
2023-05-05T09:49:18.812Z,3.28
2023-05-05T09:51:47.872Z,3.38
2023-05-05T09:54:30.470Z,3.22
2023-05-05T09:56:58.332Z,3.33
2023-05-05T09:59:26.012Z,3.20
2023-05-05T10:01:53.691Z,3.33
2023-05-05T10:04:29.877Z,3.67
2023-05-05T10:06:58.725Z,3.67
2023-05-05T10:09:27.753Z,3.35
2023-05-05T10:11:59.607Z,3.60
2023-05-05T10:14:33.800Z,3.10
2023-05-05T10:17:02.426Z,3.10
2023-05-05T10:19:32.729Z,3.15
2023-05-05T10:22:04.806Z,2.83
2023-05-05T10:24:40.314Z,2.70
2023-05-05T10:27:20.958Z,2.78
2023-05-05T10:30:08.799Z,3.33
2023-05-05T10:32:59.364Z,2.80
2023-05-05T10:35:40.890Z,2.85
2023-05-05T10:38:10.636Z,2.80
2023-05-05T10:40:46.009Z,2.55
2023-05-05T10:43:16.761Z,2.45
2023-05-05T10:45:45.372Z,2.55
2023-05-05T10:48:33.400Z,2.80
2023-05-05T10:51:39.384Z,2.97
2023-05-05T10:54:19.833Z,2.72
2023-05-05T10:56:47.939Z,2.75
2023-05-05T10:59:39.258Z,3.40
2023-05-05T11:02:23.753Z,2.88
2023-05-05T11:05:17.634Z,2.63
2023-05-05T11:07:50.393Z,2.85
2023-05-05T11:10:23.826Z,2.97
2023-05-05T11:13:02.522Z,2.70
2023-05-05T11:15:30.386Z,2.72
2023-05-05T11:18:07.989Z,3.05
2023-05-05T11:20:39.889Z,2.53
2023-05-05T11:23:07.541Z,3.17
2023-05-05T11:25:39.075Z,2.92
2023-05-05T11:28:12.036Z,2.80
2023-05-05T11:31:00.600Z,2.53
2023-05-05T11:33:38.865Z,2.70
2023-05-05T11:36:20.447Z,2.85
2023-05-05T11:38:59.678Z,3.03
2023-05-05T11:41:33.381Z,2.60
2023-05-05T11:44:19.557Z,3.50
2023-05-05T11:46:53.236Z,3.17
2023-05-05T11:49:37.468Z,3.00
2023-05-05T11:52:12.638Z,3.10
2023-05-05T11:54:49.216Z,3.65
2023-05-05T11:57:29.617Z,3.78
2023-05-05T12:00:07.703Z,3.20
2023-05-05T12:02:36.056Z,3.53
2023-05-05T12:05:04.371Z,3.50
2023-05-05T12:07:33.522Z,3.15
2023-05-05T12:10:01.675Z,3.20
2023-05-05T12:12:42.352Z,2.70
2023-05-05T12:15:10.726Z,2.80
2023-05-05T12:17:45.135Z,2.90
2023-05-05T12:20:13.582Z,2.80
2023-05-05T12:22:41.411Z,2.85
2023-05-05T12:25:09.848Z,2.47
2023-05-05T12:27:37.448Z,2.70
2023-05-05T12:30:16.862Z,2.78
2023-05-05T12:32:45.574Z,2.88
2023-05-05T12:35:18.123Z,3.35
2023-05-05T12:37:46.391Z,3.10
2023-05-05T12:40:46.042Z,3.30
2023-05-05T12:43:28.932Z,3.30
2023-05-05T12:46:10.742Z,2.92
2023-05-05T12:48:40.763Z,3.08
2023-05-05T12:51:21.066Z,3.22
2023-05-05T12:54:02.137Z,2.55
2023-05-05T12:56:35.391Z,2.65
2023-05-05T12:59:08.562Z,2.40
2023-05-05T13:02:02.594Z,2.22
2023-05-05T13:04:30.216Z,2.10
2023-05-05T13:07:15.293Z,2.17
2023-05-05T13:09:43.338Z,2.30
2023-05-05T13:12:13.941Z,1.60
2023-05-05T13:14:42.332Z,2.22
2023-05-05T13:17:13.796Z,2.20
2023-05-05T13:19:46.660Z,1.95
2023-05-05T13:22:14.652Z,2.08
2023-05-05T13:24:51.706Z,2.30
2023-05-05T13:27:21.025Z,2.63
2023-05-05T13:29:48.876Z,2.97
2023-05-05T13:32:16.515Z,3.10
2023-05-05T13:34:44.355Z,2.17
2023-05-05T13:37:12.023Z,2.20
2023-05-05T13:39:39.674Z,2.20
2023-05-05T13:42:08.858Z,2.10
2023-05-05T13:44:36.600Z,2.30
2023-05-05T13:47:04.975Z,2.00
2023-05-05T13:49:32.756Z,1.80
2023-05-05T13:52:00.923Z,2.03
2023-05-05T13:54:28.580Z,2.30
2023-05-05T13:56:57.990Z,1.80
2023-05-05T13:59:25.990Z,2.20
2023-05-05T14:01:54.201Z,2.00
2023-05-05T14:04:21.829Z,1.60
2023-05-05T14:06:49.559Z,1.77
2023-05-05T14:09:17.318Z,1.70
2023-05-05T14:11:45.450Z,1.90
2023-05-05T14:14:13.312Z,1.70
2023-05-05T14:16:41.050Z,1.80
2023-05-05T14:19:08.711Z,1.48
2023-05-05T14:21:36.692Z,1.70
2023-05-05T14:24:04.608Z,1.80
2023-05-05T14:26:32.405Z,2.00
2023-05-05T14:29:00.084Z,1.90
2023-05-05T14:31:28.992Z,1.92
2023-05-05T14:33:56.611Z,1.80
2023-05-05T14:36:24.248Z,1.63
2023-05-05T14:38:52.339Z,2.00
2023-05-05T14:41:20.192Z,1.83
2023-05-05T14:43:47.973Z,2.20
2023-05-05T14:46:15.790Z,1.90
2023-05-05T14:48:43.686Z,1.83
2023-05-05T14:51:11.445Z,1.70
2023-05-05T14:53:39.094Z,1.83
2023-05-05T14:56:07.459Z,1.90
2023-05-05T14:58:35.261Z,1.70
2023-05-05T15:01:03.111Z,1.60
2023-05-05T15:03:31.026Z,1.90
2023-05-05T15:05:58.914Z,1.67
2023-05-05T15:08:26.684Z,1.67
2023-05-05T15:10:54.885Z,1.70
2023-05-05T15:13:22.623Z,1.73
2023-05-05T15:15:50.781Z,1.52
2023-05-05T15:18:18.656Z,1.67
2023-05-05T15:20:46.385Z,1.80
2023-05-05T15:23:14.126Z,1.80
2023-05-05T15:25:41.951Z,1.77
2023-05-05T15:28:09.795Z,1.80
2023-05-05T15:30:37.483Z,1.70
2023-05-05T15:33:07.639Z,1.83
2023-05-05T15:35:36.458Z,1.75
2023-05-05T15:38:04.472Z,1.88
2023-05-05T15:40:32.384Z,1.83
2023-05-05T15:43:00.159Z,1.75
2023-05-05T15:45:27.881Z,1.70
2023-05-05T15:47:55.653Z,2.07
2023-05-05T15:50:24.260Z,2.00
2023-05-05T15:52:53.618Z,1.77
2023-05-05T15:55:21.497Z,1.67
2023-05-05T15:57:49.282Z,2.93
2023-05-05T16:00:17.442Z,2.07
2023-05-05T16:02:48.159Z,1.63
2023-05-05T16:05:15.900Z,1.90
2023-05-05T16:07:43.730Z,1.80
2023-05-05T16:10:11.622Z,1.60
2023-05-05T16:12:39.449Z,1.63
2023-05-05T16:15:08.334Z,1.63
2023-05-05T16:17:42.395Z,1.80
2023-05-05T16:20:11.456Z,1.60
2023-05-05T16:22:39.262Z,1.63
2023-05-05T16:25:08.643Z,1.50
2023-05-05T16:27:36.548Z,2.00
2023-05-05T16:30:04.667Z,1.97
2023-05-05T16:32:35.474Z,1.80
2023-05-05T16:35:03.258Z,1.67
2023-05-05T16:37:31.140Z,2.03
2023-05-05T16:39:59.288Z,1.97
2023-05-05T16:42:27.209Z,1.80
2023-05-05T16:44:55.303Z,2.10
2023-05-05T16:47:23.640Z,1.60
2023-05-05T16:49:52.889Z,1.92
2023-05-05T16:52:44.150Z,2.00
2023-05-05T16:57:55.874Z,1.80
2023-05-05T17:00:27.255Z,1.77
2023-05-05T17:02:56.616Z,1.67
2023-05-05T17:05:24.845Z,1.60
2023-05-05T17:07:52.614Z,1.83
2023-05-05T17:10:23.292Z,1.80
2023-05-05T17:12:51.289Z,1.98
2023-05-05T17:15:19.146Z,1.65
2023-05-05T17:17:51.311Z,2.00
2023-05-05T17:20:19.084Z,1.60
2023-05-05T17:22:53.984Z,1.70
2023-05-05T17:25:27.795Z,1.70
2023-05-05T17:27:58.020Z,1.93
2023-05-05T17:30:29.520Z,1.70
2023-05-05T17:32:57.874Z,1.70
2023-05-05T17:35:25.952Z,1.83
2023-05-05T17:37:53.667Z,1.98
2023-05-05T17:40:22.159Z,1.63
2023-05-05T17:42:51.032Z,1.80
2023-05-05T17:45:20.865Z,1.77
2023-05-05T17:47:49.715Z,1.77
2023-05-05T17:50:18.356Z,1.60
2023-05-05T17:52:46.803Z,1.90
2023-05-05T17:55:14.730Z,2.10
2023-05-05T17:57:45.074Z,1.50
2023-05-05T18:00:16.309Z,1.73
2023-05-05T18:02:44.552Z,1.90
2023-05-05T18:05:15.115Z,1.87
2023-05-05T18:07:53.466Z,2.03
2023-05-05T18:10:21.230Z,1.60
2023-05-05T18:12:51.834Z,1.80
2023-05-05T18:15:22.572Z,1.70
2023-05-05T18:17:50.475Z,1.73
2023-05-05T18:20:22.280Z,2.00
2023-05-05T18:22:50.265Z,1.53
2023-05-05T18:25:27.558Z,1.90
2023-05-05T18:27:59.623Z,1.93
2023-05-05T18:30:31.261Z,1.80
2023-05-05T18:33:02.135Z,1.80
2023-05-05T18:35:33.227Z,1.90
2023-05-05T18:38:03.531Z,1.67
2023-05-05T18:40:31.963Z,1.83
2023-05-05T18:43:04.330Z,2.10
2023-05-05T18:45:37.021Z,2.20
2023-05-05T18:48:11.550Z,2.30
2023-05-05T18:50:45.831Z,2.13
2023-05-05T18:53:15.491Z,2.37
2023-05-05T18:55:49.487Z,2.40
2023-05-05T18:58:22.128Z,2.60
2023-05-05T19:00:55.512Z,2.47
2023-05-05T19:03:23.817Z,2.40
2023-05-05T19:05:55.552Z,3.03
2023-05-05T19:08:23.808Z,4.73
2023-05-05T19:10:57.768Z,5.23
2023-05-05T19:13:26.396Z,5.20
2023-05-05T19:15:58.292Z,3.20
2023-05-05T19:18:33.183Z,3.63
2023-05-05T19:21:03.110Z,3.40
2023-05-05T19:23:32.599Z,3.63
2023-05-05T19:26:10.529Z,3.50
2023-05-05T19:28:38.300Z,3.70
2023-05-05T19:31:09.478Z,4.10
2023-05-05T19:33:38.609Z,3.43
2023-05-05T19:36:12.029Z,3.07
2023-05-05T19:38:45.528Z,2.07
2023-05-05T19:41:14.699Z,2.27
2023-05-05T19:43:47.857Z,4.00
2023-05-05T19:46:21.761Z,5.73
2023-05-05T19:48:54.538Z,3.43
2023-05-05T19:51:35.074Z,3.30
2023-05-05T19:54:08.315Z,3.90
2023-05-05T19:56:39.548Z,7.23
2023-05-05T19:59:07.992Z,3.90
2023-05-05T20:01:41.483Z,3.33
2023-05-05T20:04:11.035Z,3.00
2023-05-05T20:06:41.462Z,3.27
2023-05-05T20:09:16.167Z,3.27
2023-05-05T20:11:51.504Z,3.60
2023-05-05T20:14:19.976Z,3.87
2023-05-05T20:16:56.354Z,3.90
2023-05-05T20:19:24.269Z,3.97
2023-05-05T20:21:58.685Z,3.63
2023-05-05T20:24:30.002Z,3.77
2023-05-05T20:26:57.877Z,4.00
2023-05-05T20:29:28.734Z,5.10
2023-05-05T20:31:57.743Z,4.10
2023-05-05T20:34:27.564Z,3.70
2023-05-05T20:36:56.686Z,3.50
2023-05-05T20:39:24.666Z,4.47
2023-05-05T20:41:52.499Z,18.93
2023-05-05T20:44:22.330Z,5.73
2023-05-05T20:46:50.799Z,5.07
2023-05-05T20:49:20.169Z,4.00
2023-05-05T20:51:50.006Z,4.00
2023-05-05T20:54:17.858Z,4.37
2023-05-05T20:56:45.631Z,4.20
2023-05-05T20:59:15.622Z,3.97
2023-05-05T21:01:44.285Z,3.70
2023-05-05T21:04:16.515Z,3.87
2023-05-05T21:06:45.387Z,3.93
2023-05-05T21:09:16.620Z,4.87
2023-05-05T21:11:47.058Z,4.43
2023-05-05T21:14:14.835Z,5.40
2023-05-05T21:19:27.020Z,8.77
2023-05-05T21:21:59.390Z,9.43
2023-05-05T21:24:28.367Z,8.10
2023-05-05T21:26:56.614Z,8.53
2023-05-05T21:29:26.606Z,6.10
2023-05-05T21:31:54.554Z,5.80
2023-05-05T21:34:22.279Z,4.40
2023-05-05T21:36:52.294Z,4.50
2023-05-05T21:39:22.862Z,4.33
2023-05-05T21:41:52.089Z,5.13
2023-05-05T21:44:20.613Z,5.70
2023-05-05T21:46:48.497Z,5.60
2023-05-05T21:49:22.862Z,4.47
2023-05-05T21:51:51.050Z,4.30
2023-05-05T21:54:18.792Z,3.87
2023-05-05T21:56:48.454Z,4.20
2023-05-05T21:59:17.158Z,4.40
2023-05-05T22:01:45.292Z,4.20
2023-05-05T22:04:15.712Z,4.20
2023-05-05T22:06:43.503Z,4.60
2023-05-05T22:09:11.312Z,4.90
2023-05-05T22:11:39.033Z,4.60
2023-05-05T22:14:06.832Z,4.90
2023-05-05T22:16:34.564Z,8.83
2023-05-05T22:19:02.710Z,9.67
2023-05-05T22:21:30.300Z,15.63
2023-05-05T22:23:58.107Z,21.47
2023-05-05T22:26:25.874Z,18.47
2023-05-05T22:28:53.524Z,15.30
2023-05-05T22:31:21.175Z,11.40
2023-05-05T22:33:49.001Z,8.17
2023-05-05T22:36:16.725Z,7.73
2023-05-05T22:38:44.397Z,6.60
2023-05-05T22:41:12.756Z,6.77
2023-05-05T22:43:40.461Z,5.47
2023-05-05T22:46:08.228Z,5.40
2023-05-05T22:48:36.076Z,5.20
2023-05-05T22:51:03.993Z,5.20
2023-05-05T22:53:31.791Z,5.37
2023-05-05T22:55:59.533Z,5.40
2023-05-05T22:58:27.818Z,5.20
2023-05-05T23:00:55.507Z,4.70
2023-05-05T23:03:23.246Z,5.07
2023-05-05T23:05:50.732Z,5.13
2023-05-05T23:08:18.282Z,5.40
2023-05-05T23:10:45.769Z,4.90
2023-05-05T23:13:13.447Z,5.10
2023-05-05T23:15:41.268Z,4.93
2023-05-05T23:18:08.897Z,5.37
2023-05-05T23:20:36.462Z,5.10
2023-05-05T23:23:04.707Z,4.83
2023-05-05T23:25:32.321Z,4.40
2023-05-05T23:27:59.804Z,4.63
2023-05-05T23:30:27.359Z,4.10
2023-05-05T23:32:54.957Z,4.70
2023-05-05T23:35:22.534Z,4.47
2023-05-05T23:37:50.354Z,5.27
2023-05-05T23:40:18.033Z,4.67
2023-05-05T23:42:45.534Z,4.90
2023-05-05T23:45:13.303Z,5.27
2023-05-05T23:47:40.924Z,5.13
2023-05-05T23:50:09.375Z,4.90
2023-05-05T23:52:36.914Z,4.80
2023-05-05T23:55:04.894Z,4.80
2023-05-05T23:57:32.322Z,4.90
2023-05-05T23:59:59.900Z,4.17
